Prefeito Renato Moreira Airport
SBIZ : rendu visible

Aérodrome :











RETROUVEZ-NOUS SUR...

 
LOGIN :

S'inscrire | Disclaimer

   EN    FR    IT 

 









Légende :    VFR   VFR Marginal   IFR   IFR Intensif   IFR Très Intensif
Visi : 
Plafond : 
>= 8 km
>= 3000ft
5 à 8 km
1000 à 3000 ft
1500m à 5 km
500 à 1000 ft
800 à 1500m
200 à 500 ft
< 800m
< 200 ft
Symboles :   Orages  Brouillard  Fortes neiges  Fortes précipitations  Vent > 20 kt






- Altitude de l'aérodrome : 432 ft
- Code IATA : IMP


SBIZ - Prefeito Renato Moreira

DERNIER METAR :
  • 210600Z 00000KT 9999 -RA FEW020 BKN100 25/24 Q1011

METARs EXPIRÉS :
  • 210500Z 35002KT 9999 -RA SCT003 BKN100 25/25 Q1011
  • 210400Z 33001KT 8000 RA SCT005 OVC100 26/25 Q1011

TAF TAF SBIZ
Valide du 21 à 06h jusqu'au 21 à 18h UTC


210300Z 2106/2118 32005KT 9999 SCT020TN25/2109Z TX31/2118Z
PROB40 2108/2112 5000 RA SCT011 BKN015
BECMG 2114/2117 22005KT 8000 SCT020 FEW025TCU RMK PGZ



MET'MAP, la Météo Aéronautique d'un coup d'oeil ! - Copyright ORBIFLY Décembre 2007 - Disclaimer

ORBIFLY MET'MAP TEAM :

Programmation & Développement : Alexandra Zaïnal
Sur une idée originale de : Baudouin d'Aumeries
Assistance à la programmation : Marc-Olivier Méhu
Soutien technique & logistique : Manuel Goepfert

Contact : metmap@orbifly.com




SOURCES & CREDITS :

   NOAA       Earth
Advisory